EKKA/KRP METAR and TAF weather

Enter ICAO airport designator
Station Type Date Time Source
EKKA METAR 2022/07/03 14:20 UTC NOAA

EKKA 031420Z AUTO 24011KT 9999 SCT098/// 23/09 Q1015


Station Type Date Time Source
EKKA Decoded METAR 2022/07/03 14:20 UTC NOAA

Karup, Denmark (EKKA) 56-18N 009-07E 53M
Jul 03, 2022 - 10:20 AM EDT / 2022.07.03 1420 UTC
Wind: from the WSW (240 degrees) at 13 MPH (11 KT):0
Visibility: greater than 7 mile(s):0
Sky conditions: partly cloudy
Temperature: 73 F (23 C)
Dew Point: 48 F (9 C)
Relative Humidity: 40%
Pressure (altimeter): 29.97 in. Hg (1015 hPa)
ob: EKKA 031420Z AUTO 24011KT 9999 SCT098/// 23/09 Q1015
cycle: 14

Station Type Date Time Source
EKKA TAF 2022/07/03 15:30 UTC NOAA

TAF TAF EKKA 031403Z 0315/0415 24010KT 9999 FEW040 SCT100 PROB40 0315/0318 6000 SHRA SCT040CB
TEMPO 0406/0415 25013G23KT 5000 SHRA SCT012 BKN020CB

Example: see airport list